Time;durP1;ratioP1;P1;durP2;ratioP2;P2;SDS_P1;SDS_P2;PMS_P1;PMS_P2;Temp;Humidity;BMP_temperature;BMP_pressure;BME280_temperature;BME280_humidity;BME280_pressure;Samples;Min_cycle;Max_cycle;Signal;HPM_P1;HPM_P2
2021/08/18 00:00:04;;;;;;;7.07;4.60;;;22.30;99.90;;;;;;5012332;28;20218;-91
2021/08/18 00:02:35;;;;;;;7.30;4.40;;;22.60;99.90;;;;;;5010027;28;20265;-91
2021/08/18 00:05:13;;;;;;;8.17;5.20;;;22.70;99.90;;;;;;5011104;28;20210;-90
2021/08/18 00:07:49;;;;;;;7.20;4.50;;;22.90;99.90;;;;;;5010982;28;20189;-89
2021/08/18 00:10:27;;;;;;;7.73;4.50;;;22.50;99.90;;;;;;5009278;28;20206;-92
2021/08/18 00:12:58;;;;;;;7.57;4.40;;;22.40;99.90;;;;;;5010481;28;20210;-90
2021/08/18 00:15:33;;;;;;;6.83;4.60;;;22.60;99.90;;;;;;5006997;28;20211;-89
2021/08/18 00:18:07;;;;;;;8.00;5.10;;;22.80;99.90;;;;;;5007874;28;20206;-90
2021/08/18 00:20:41;;;;;;;8.27;4.80;;;23.00;99.90;;;;;;5011583;28;20265;-91
2021/08/18 00:23:13;;;;;;;6.47;4.13;;;23.20;99.90;;;;;;4997422;28;20206;-90
2021/08/18 00:25:45;;;;;;;5.47;4.30;;;23.10;99.90;;;;;;4996776;28;20234;-90
2021/08/18 00:28:16;;;;;;;5.47;3.83;;;23.00;99.90;;;;;;5009976;28;20210;-90
2021/08/18 00:30:48;;;;;;;5.23;3.83;;;22.70;99.90;;;;;;4981499;28;20213;-90
2021/08/18 00:33:19;;;;;;;6.20;4.00;;;22.90;99.90;;;;;;4998912;28;20309;-90
2021/08/18 00:35:55;;;;;;;4.83;4.17;;;23.00;99.90;;;;;;4984513;28;20198;-89
2021/08/18 00:38:27;;;;;;;6.90;3.90;;;23.00;99.90;;;;;;5012159;28;20533;-90
2021/08/18 00:40:59;;;;;;;7.23;4.23;;;22.80;99.90;;;;;;4997505;28;20230;-90
2021/08/18 00:43:30;;;;;;;8.53;3.93;;;22.40;99.90;;;;;;4999781;28;20210;-90
2021/08/18 00:46:02;;;;;;;6.10;3.80;;;22.10;99.90;;;;;;4998823;28;20280;-91
2021/08/18 00:48:34;;;;;;;6.13;4.50;;;22.10;99.90;;;;;;5000498;28;20273;-90
2021/08/18 00:51:09;;;;;;;5.90;4.10;;;21.80;99.90;;;;;;5006978;28;20217;-91
2021/08/18 00:53:41;;;;;;;7.73;4.50;;;21.90;99.90;;;;;;4999187;28;20210;-91
2021/08/18 00:56:15;;;;;;;5.70;4.10;;;21.80;99.90;;;;;;5001904;28;20576;-91
2021/08/18 00:58:50;;;;;;;5.60;4.30;;;21.70;99.90;;;;;;4982900;28;20209;-91
2021/08/18 01:01:22;;;;;;;5.90;3.83;;;21.70;99.90;;;;;;5000103;28;20234;-91
2021/08/18 01:03:56;;;;;;;5.50;4.13;;;21.90;99.90;;;;;;5002573;28;20218;-91
2021/08/18 01:06:33;;;;;;;6.47;3.80;;;22.00;99.90;;;;;;5010347;28;20217;-91
2021/08/18 01:09:10;;;;;;;7.17;4.40;;;22.10;99.90;;;;;;5011596;28;20217;-89
2021/08/18 01:11:44;;;;;;;7.40;4.63;;;22.40;99.90;;;;;;5011377;28;20198;-90
2021/08/18 01:14:18;;;;;;;4.73;3.83;;;22.70;99.90;;;;;;5015103;28;20217;-90
2021/08/18 01:16:51;;;;;;;7.90;4.50;;;23.00;99.90;;;;;;5007011;28;20214;-91
2021/08/18 01:19:23;;;;;;;9.93;4.90;;;23.10;99.90;;;;;;4996857;28;20226;-91
2021/08/18 01:21:57;;;;;;;8.23;4.30;;;23.20;99.90;;;;;;4994168;28;20262;-90
2021/08/18 01:24:28;;;;;;;7.17;4.43;;;22.80;99.90;;;;;;4993523;28;20231;-91
2021/08/18 01:27:01;;;;;;;6.77;4.37;;;22.90;99.90;;;;;;4976009;28;20211;-90
2021/08/18 01:29:34;;;;;;;6.73;4.40;;;22.90;99.90;;;;;;4996864;28;20210;-90
2021/08/18 01:32:06;;;;;;;8.20;4.50;;;22.80;99.90;;;;;;4999431;28;20214;-90
2021/08/18 01:34:38;;;;;;;8.00;4.40;;;22.80;99.90;;;;;;4997428;28;20209;-91
2021/08/18 01:37:10;;;;;;;7.43;4.40;;;23.10;99.90;;;;;;4996214;28;20210;-91
2021/08/18 01:39:41;;;;;;;5.00;3.90;;;22.60;99.90;;;;;;4980009;28;20207;-91
2021/08/18 01:42:13;;;;;;;6.97;4.57;;;22.40;99.90;;;;;;4978685;28;20265;-91
2021/08/18 01:44:47;;;;;;;6.83;4.20;;;22.10;99.90;;;;;;4978170;28;20647;-91
2021/08/18 01:47:18;;;;;;;6.80;4.30;;;21.70;99.90;;;;;;4979213;28;20235;-92
2021/08/18 01:49:49;;;;;;;8.80;4.40;;;21.30;99.90;;;;;;4960871;28;20215;-91
2021/08/18 01:52:21;;;;;;;5.87;4.60;;;21.00;99.90;;;;;;4984825;28;20298;-92
2021/08/18 01:54:59;;;;;;;6.33;4.03;;;20.80;99.90;;;;;;4990562;28;20242;-91
2021/08/18 01:57:31;;;;;;;6.90;4.03;;;20.70;99.90;;;;;;4992621;28;20203;-91
2021/08/18 02:00:07;;;;;;;5.27;4.30;;;20.60;99.90;;;;;;4990105;28;20314;-90
2021/08/18 02:02:38;;;;;;;6.80;4.47;;;20.40;99.90;;;;;;4991999;28;20238;-90
2021/08/18 02:05:11;;;;;;;5.60;4.00;;;20.20;99.90;;;;;;4991494;28;20218;-91
2021/08/18 02:10:36;;;;;;;6.00;3.77;;;20.20;99.90;;;;;;5643453;23;20344;-92
2021/08/18 02:13:10;;;;;;;6.63;4.30;;;20.30;99.90;;;;;;5041360;28;20220;-91
2021/08/18 02:15:45;;;;;;;8.00;4.80;;;20.20;99.90;;;;;;5040406;28;20204;-88
2021/08/18 02:18:17;;;;;;;6.43;4.43;;;20.20;99.90;;;;;;5055822;28;20227;-91
2021/08/18 02:20:49;;;;;;;8.03;4.70;;;20.00;99.90;;;;;;5051990;28;20236;-91
2021/08/18 02:23:23;;;;;;;8.67;4.23;;;20.00;99.90;;;;;;5057583;28;20237;-91
2021/08/18 02:25:54;;;;;;;6.20;4.60;;;20.10;99.90;;;;;;5055684;28;20211;-91
2021/08/18 02:28:26;;;;;;;4.83;4.03;;;20.20;99.90;;;;;;5053723;28;20327;-92
2021/08/18 02:31:00;;;;;;;6.80;4.90;;;20.00;99.90;;;;;;5053217;28;20276;-90
2021/08/18 02:33:32;;;;;;;6.53;4.13;;;20.00;99.90;;;;;;5035297;28;20221;-91
2021/08/18 02:36:04;;;;;;;6.73;3.90;;;19.90;99.90;;;;;;5050879;28;20211;-91
2021/08/18 02:38:37;;;;;;;5.50;3.23;;;19.90;99.90;;;;;;5051724;28;20200;-91
2021/08/18 02:41:08;;;;;;;5.57;3.70;;;19.80;99.90;;;;;;5051133;28;20235;-92
2021/08/18 02:43:41;;;;;;;4.13;3.50;;;19.70;99.90;;;;;;5053119;28;20229;-91
2021/08/18 02:51:41;;;;;;;6.30;3.67;;;19.50;99.90;;;;;;5069459;28;20216;-93
2021/08/18 02:54:15;;;;;;;7.40;3.33;;;19.40;99.90;;;;;;5070425;28;20638;-91
2021/08/18 02:56:46;;;;;;;5.30;3.33;;;19.20;99.90;;;;;;5069619;28;20233;-92
2021/08/18 03:02:09;;;;;;;6.13;3.30;;;18.80;99.90;;;;;;5072775;28;20231;-92
2021/08/18 03:04:42;;;;;;;3.70;3.33;;;18.80;99.90;;;;;;5071558;28;20223;-92
2021/08/18 03:07:15;;;;;;;4.10;3.23;;;18.80;99.90;;;;;;5096534;22;21275;-92
2021/08/18 03:09:47;;;;;;;4.50;3.50;;;18.80;99.90;;;;;;5051572;28;20205;-92
2021/08/18 03:12:31;;;;;;;3.70;3.30;;;18.80;99.90;;;;;;5051472;28;20571;-92
2021/08/18 03:15:02;;;;;;;5.37;3.17;;;18.70;99.90;;;;;;5051683;28;20205;-91
2021/08/18 03:17:34;;;;;;;4.77;3.47;;;18.70;99.90;;;;;;5049708;28;20239;-90
2021/08/18 03:20:08;;;;;;;5.23;3.17;;;18.70;99.90;;;;;;5049947;28;20201;-91
2021/08/18 03:22:43;;;;;;;4.77;3.30;;;18.50;99.90;;;;;;5050655;28;20263;-90
2021/08/18 03:25:14;;;;;;;4.53;3.20;;;18.40;99.90;;;;;;5053529;28;20209;-91
2021/08/18 03:27:46;;;;;;;6.17;4.10;;;18.30;99.90;;;;;;5074534;22;20241;-91
2021/08/18 03:30:21;;;;;;;4.33;3.53;;;18.20;99.90;;;;;;5027554;28;20209;-92
2021/08/18 03:32:54;;;;;;;6.07;4.23;;;18.10;99.90;;;;;;5030243;28;20213;-92
2021/08/18 03:35:29;;;;;;;4.57;3.20;;;18.00;99.90;;;;;;5029915;28;20233;-92
2021/08/18 03:38:03;;;;;;;7.63;3.50;;;17.80;99.90;;;;;;5029415;28;20666;-92
2021/08/18 03:40:35;;;;;;;3.93;3.20;;;17.70;99.90;;;;;;5031087;28;20293;-91
2021/08/18 03:43:07;;;;;;;5.33;4.20;;;17.70;99.90;;;;;;5083445;22;20256;-90
2021/08/18 03:45:45;;;;;;;4.90;3.60;;;17.50;99.90;;;;;;5054181;28;20205;-92
2021/08/18 03:48:20;;;;;;;5.20;3.80;;;17.40;99.90;;;;;;5044965;28;20201;-93
2021/08/18 03:50:52;;;;;;;4.83;3.83;;;17.40;99.90;;;;;;5055223;28;20195;-92
2021/08/18 03:53:25;;;;;;;5.83;3.70;;;17.30;99.90;;;;;;5058979;22;20254;-90
2021/08/18 03:55:56;;;;;;;4.97;3.40;;;17.30;99.90;;;;;;5015957;28;20248;-92
2021/08/18 03:58:29;;;;;;;4.20;3.60;;;17.20;99.90;;;;;;5014147;28;20762;-91
2021/08/18 04:01:04;;;;;;;5.70;3.83;;;17.20;99.90;;;;;;5009674;28;20224;-91
2021/08/18 04:03:36;;;;;;;8.37;4.00;;;17.10;99.90;;;;;;4999950;28;20230;-92
2021/08/18 04:06:10;;;;;;;5.77;3.53;;;17.00;99.90;;;;;;5009475;28;20209;-91
2021/08/18 04:08:43;;;;;;;7.77;4.17;;;17.00;99.90;;;;;;5004700;28;20222;-91
2021/08/18 04:11:14;;;;;;;4.93;3.50;;;16.90;99.90;;;;;;5022379;28;20273;-92
2021/08/18 04:13:48;;;;;;;4.83;3.73;;;16.80;99.90;;;;;;5020506;28;20212;-91
2021/08/18 04:16:22;;;;;;;4.47;4.00;;;16.70;99.90;;;;;;5022410;28;20214;-91
2021/08/18 04:18:55;;;;;;;5.40;4.10;;;16.60;99.90;;;;;;5028562;28;20205;-90
2021/08/18 04:21:26;;;;;;;5.43;3.93;;;16.60;99.90;;;;;;5029382;28;20221;-91
2021/08/18 04:24:00;;;;;;;5.37;3.77;;;16.50;99.90;;;;;;5026168;28;20230;-91
2021/08/18 04:26:32;;;;;;;5.17;3.83;;;16.40;99.90;;;;;;5017932;28;20198;-91
2021/08/18 04:29:06;;;;;;;6.37;4.27;;;16.40;99.90;;;;;;5017871;28;20221;-89
2021/08/18 04:31:37;;;;;;;6.50;3.87;;;16.40;99.90;;;;;;5005366;28;20207;-90
2021/08/18 04:34:09;;;;;;;4.40;3.27;;;16.30;99.90;;;;;;4984514;28;20233;-91
2021/08/18 04:36:40;;;;;;;5.60;4.30;;;16.30;99.90;;;;;;5001599;28;20627;-91
2021/08/18 04:39:13;;;;;;;5.53;3.90;;;16.30;99.90;;;;;;5001858;28;20202;-91
2021/08/18 04:41:45;;;;;;;5.10;4.07;;;16.20;99.90;;;;;;5001583;28;20214;-91
2021/08/18 04:44:16;;;;;;;6.00;4.27;;;16.10;99.90;;;;;;4999697;28;20266;-91
2021/08/18 04:46:50;;;;;;;5.67;4.30;;;16.10;99.90;;;;;;4999294;28;20300;-91
2021/08/18 04:49:21;;;;;;;6.33;4.30;;;16.10;99.90;;;;;;5002022;28;20217;-91
2021/08/18 04:51:53;;;;;;;6.83;4.33;;;16.10;99.90;;;;;;5009653;28;20548;-91
2021/08/18 04:54:27;;;;;;;6.87;4.17;;;16.00;99.90;;;;;;5009978;28;20284;-91
2021/08/18 04:57:00;;;;;;;6.03;3.90;;;15.90;99.90;;;;;;5010769;28;20252;-91
2021/08/18 04:59:31;;;;;;;6.27;3.80;;;15.90;99.90;;;;;;5006252;28;20206;-91
2021/08/18 05:02:02;;;;;;;4.73;3.40;;;15.90;99.90;;;;;;5013103;28;20205;-91
2021/08/18 05:04:34;;;;;;;9.73;4.43;;;15.90;99.90;;;;;;5028727;28;20237;-91
2021/08/18 05:07:08;;;;;;;7.47;4.70;;;15.90;99.90;;;;;;5034453;28;20201;-91
2021/08/18 05:10:12;;;;;;;10.43;4.83;;;15.90;99.90;;;;;;5027640;28;20213;-91
2021/08/18 05:15:15;;;;;;;6.37;3.53;;;15.80;99.90;;;;;;5047680;28;20315;-90
2021/08/18 05:17:47;;;;;;;5.60;3.80;;;15.70;99.90;;;;;;5032801;28;20272;-92
2021/08/18 05:20:19;;;;;;;4.63;3.53;;;15.60;99.90;;;;;;5048928;28;20215;-91
2021/08/18 05:22:55;;;;;;;6.00;3.67;;;15.60;99.90;;;;;;5045467;28;20610;-91
2021/08/18 05:25:29;;;;;;;6.43;4.13;;;15.50;99.90;;;;;;5047340;28;20233;-91
2021/08/18 05:28:03;;;;;;;10.13;3.93;;;15.50;99.90;;;;;;5039334;28;20273;-91
2021/08/18 05:30:35;;;;;;;5.13;3.40;;;15.50;99.90;;;;;;5037342;28;20208;-91
2021/08/18 05:33:06;;;;;;;5.93;3.80;;;15.40;99.90;;;;;;5041407;28;20237;-90
2021/08/18 05:41:12;;;;;;;4.40;3.70;;;15.30;99.90;;;;;;5054674;28;20243;-90
2021/08/18 05:43:44;;;;;;;4.83;3.50;;;15.30;99.90;;;;;;5061624;28;20260;-90
2021/08/18 05:46:16;;;;;;;6.80;3.67;;;15.20;99.90;;;;;;5044760;28;20231;-92
2021/08/18 05:48:47;;;;;;;4.47;3.47;;;15.20;99.90;;;;;;5063787;28;20295;-92
2021/08/18 05:51:19;;;;;;;5.63;4.10;;;15.10;99.90;;;;;;5077758;28;20180;-91
2021/08/18 05:53:51;;;;;;;5.30;3.80;;;15.10;99.90;;;;;;5079421;28;20215;-92
2021/08/18 05:56:25;;;;;;;5.80;3.53;;;15.10;99.90;;;;;;5079140;28;20197;-91
2021/08/18 05:58:56;;;;;;;8.03;3.80;;;15.10;99.90;;;;;;5079832;28;20192;-92
2021/08/18 06:01:27;;;;;;;4.33;3.23;;;15.10;99.90;;;;;;5061671;28;20185;-90
2021/08/18 06:03:58;;;;;;;4.87;3.93;;;15.10;99.90;;;;;;5079605;28;20243;-91
2021/08/18 06:06:29;;;;;;;4.53;3.60;;;15.10;99.90;;;;;;5079508;28;20196;-91
2021/08/18 06:09:01;;;;;;;5.73;4.00;;;15.10;99.90;;;;;;5079681;28;20211;-91
2021/08/18 06:11:34;;;;;;;4.37;3.77;;;15.10;99.90;;;;;;5077683;28;20215;-92
2021/08/18 06:14:08;;;;;;;4.27;3.10;;;15.00;99.90;;;;;;5065846;28;20296;-91
2021/08/18 06:16:40;;;;;;;5.03;3.47;;;15.00;99.90;;;;;;5062668;28;20211;-90
2021/08/18 06:19:11;;;;;;;3.83;3.07;;;15.00;99.90;;;;;;5049294;28;20204;-90
2021/08/18 06:21:42;;;;;;;6.00;3.27;;;14.90;99.90;;;;;;5062728;28;20746;-91
2021/08/18 06:24:24;;;;;;;4.60;3.13;;;14.90;99.90;;;;;;5063539;28;20330;-90
2021/08/18 06:26:58;;;;;;;3.70;3.20;;;14.90;99.90;;;;;;5064335;28;20212;-90
2021/08/18 06:29:32;;;;;;;3.93;3.53;;;14.80;99.90;;;;;;5064577;28;20222;-90
2021/08/18 06:32:04;;;;;;;4.10;3.33;;;14.80;99.90;;;;;;5064074;28;20205;-90
2021/08/18 06:34:35;;;;;;;5.40;3.47;;;14.80;99.90;;;;;;5066015;28;20223;-88
2021/08/18 06:37:07;;;;;;;4.53;3.60;;;14.80;99.90;;;;;;5067909;28;20223;-91
2021/08/18 06:39:42;;;;;;;4.30;3.57;;;14.80;99.90;;;;;;5077878;28;20220;-89
2021/08/18 06:42:15;;;;;;;5.77;3.13;;;14.70;99.90;;;;;;5078419;28;20196;-91
2021/08/18 06:47:16;;;;;;;5.63;3.60;;;14.60;99.90;;;;;;5076431;28;20214;-90
2021/08/18 06:49:47;;;;;;;4.47;3.60;;;14.60;99.90;;;;;;5078396;28;20264;-92
2021/08/18 06:52:19;;;;;;;6.43;3.50;;;14.60;99.90;;;;;;5077913;28;20209;-92
2021/08/18 06:54:51;;;;;;;5.43;3.33;;;14.60;99.90;;;;;;5077139;28;20284;-92
2021/08/18 06:57:24;;;;;;;4.93;3.50;;;14.60;99.90;;;;;;5055202;28;20235;-91
2021/08/18 06:59:56;;;;;;;4.27;3.70;;;14.50;99.90;;;;;;5049963;28;20272;-91
2021/08/18 07:02:27;;;;;;;5.87;3.60;;;14.50;99.90;;;;;;5064365;28;20208;-91
2021/08/18 07:04:59;;;;;;;6.37;4.03;;;14.40;99.90;;;;;;5063679;28;20247;-91
2021/08/18 07:07:33;;;;;;;7.43;4.10;;;14.40;99.90;;;;;;5062233;28;20217;-90
2021/08/18 07:10:05;;;;;;;5.10;3.83;;;14.40;99.90;;;;;;5062381;28;20203;-91
2021/08/18 07:12:38;;;;;;;4.53;3.60;;;14.40;99.90;;;;;;5062686;28;20205;-91
2021/08/18 07:15:11;;;;;;;5.03;3.80;;;14.40;99.90;;;;;;5061970;28;20208;-91
2021/08/18 07:17:42;;;;;;;5.23;3.50;;;14.40;99.90;;;;;;5062288;28;20201;-90
2021/08/18 07:20:15;;;;;;;4.80;3.90;;;14.40;99.90;;;;;;5061040;28;20620;-92
2021/08/18 07:22:52;;;;;;;5.53;3.90;;;14.40;99.90;;;;;;5061373;28;20698;-91
2021/08/18 07:25:24;;;;;;;4.83;3.50;;;14.40;99.90;;;;;;5061395;28;20339;-92
2021/08/18 07:28:06;;;;;;;7.47;4.27;;;14.40;99.90;;;;;;5060739;28;20677;-91
2021/08/18 07:30:38;;;;;;;4.47;3.40;;;14.30;99.90;;;;;;5335779;22;20251;-92
2021/08/18 07:33:09;;;;;;;7.13;3.40;;;14.40;99.90;;;;;;5026486;28;20235;-92
2021/08/18 07:35:41;;;;;;;4.77;3.40;;;14.40;99.90;;;;;;5020933;28;20225;-91
2021/08/18 07:38:16;;;;;;;6.53;3.67;;;14.40;99.90;;;;;;5020312;28;20611;-91
2021/08/18 07:40:59;;;;;;;5.47;3.73;;;14.30;99.90;;;;;;5002398;28;20240;-91
2021/08/18 07:43:36;;;;;;;7.63;4.00;;;14.30;99.90;;;;;;5017076;28;20229;-91
2021/08/18 07:46:07;;;;;;;5.20;3.90;;;14.30;99.90;;;;;;5031185;28;20267;-92
2021/08/18 07:48:39;;;;;;;5.37;4.00;;;14.20;99.90;;;;;;5042183;28;20220;-91
2021/08/18 07:51:12;;;;;;;5.73;4.00;;;14.20;99.90;;;;;;5042334;28;20252;-90
2021/08/18 07:53:46;;;;;;;4.00;3.40;;;14.20;99.90;;;;;;5045746;28;20212;-91
2021/08/18 07:56:18;;;;;;;5.43;4.00;;;14.10;99.90;;;;;;5052060;28;20576;-91
2021/08/18 07:58:58;;;;;;;4.53;3.90;;;14.10;99.90;;;;;;5031798;28;20579;-91
2021/08/18 08:01:40;;;;;;;5.57;3.80;;;14.10;99.90;;;;;;5046713;28;20227;-90
2021/08/18 08:04:12;;;;;;;7.20;3.60;;;14.10;99.90;;;;;;5043454;28;20637;-91
2021/08/18 08:06:46;;;;;;;4.17;3.50;;;14.00;99.90;;;;;;5043749;28;20727;-90
2021/08/18 08:09:18;;;;;;;5.00;4.17;;;14.00;99.90;;;;;;5026407;28;20219;-90
2021/08/18 08:11:50;;;;;;;6.77;4.17;;;14.00;99.90;;;;;;5018213;28;20201;-90
2021/08/18 08:14:23;;;;;;;5.33;4.13;;;14.00;99.90;;;;;;5021222;28;20205;-91
2021/08/18 08:16:54;;;;;;;5.63;3.73;;;14.00;99.90;;;;;;5035401;28;20213;-90
2021/08/18 08:19:25;;;;;;;4.20;3.70;;;14.00;99.90;;;;;;5037567;28;20259;-90
2021/08/18 08:21:56;;;;;;;6.60;3.63;;;13.90;99.90;;;;;;5036685;28;20251;-90
2021/08/18 08:24:27;;;;;;;4.13;3.43;;;13.90;99.90;;;;;;5037225;28;20657;-91
2021/08/18 08:26:58;;;;;;;3.93;3.43;;;13.90;99.90;;;;;;5037387;28;20228;-90
2021/08/18 08:29:31;;;;;;;5.13;3.93;;;13.90;99.90;;;;;;5037406;28;20243;-91
2021/08/18 08:32:03;;;;;;;4.47;3.57;;;13.90;99.90;;;;;;5036105;28;20247;-89
2021/08/18 08:34:35;;;;;;;4.40;4.00;;;13.80;99.90;;;;;;5031794;28;20329;-90
2021/08/18 08:37:07;;;;;;;7.60;3.97;;;13.70;99.90;;;;;;5017309;28;20217;-90
2021/08/18 08:39:39;;;;;;;4.60;3.50;;;13.70;99.90;;;;;;5016848;28;20209;-90
2021/08/18 08:42:15;;;;;;;4.40;3.53;;;13.70;99.90;;;;;;5016954;28;20264;-90
2021/08/18 08:44:51;;;;;;;4.70;3.83;;;13.70;99.90;;;;;;5016685;28;20296;-90
2021/08/18 08:47:23;;;;;;;5.23;3.80;;;13.60;99.90;;;;;;4997595;28;20292;-89
2021/08/18 08:49:58;;;;;;;5.20;4.03;;;13.50;99.90;;;;;;4997181;28;20309;-90
2021/08/18 08:52:30;;;;;;;5.30;3.77;;;13.50;99.90;;;;;;4979881;28;20209;-90
2021/08/18 08:55:01;;;;;;;5.23;4.03;;;13.50;99.90;;;;;;4997703;28;20729;-91
2021/08/18 08:57:32;;;;;;;4.10;3.67;;;13.50;99.90;;;;;;4997536;28;20257;-90
2021/08/18 09:00:11;;;;;;;4.87;4.00;;;13.50;99.90;;;;;;4997960;28;20209;-90
2021/08/18 09:02:42;;;;;;;5.00;3.67;;;13.50;99.90;;;;;;4999526;28;20229;-91
2021/08/18 09:05:14;;;;;;;5.67;3.70;;;13.50;99.90;;;;;;5008790;28;20226;-93
2021/08/18 09:07:57;;;;;;;6.07;4.23;;;13.20;99.90;;;;;;5035467;28;20567;-90
2021/08/18 09:10:28;;;;;;;5.40;3.77;;;13.20;99.90;;;;;;5032374;28;20224;-88
2021/08/18 09:13:14;;;;;;;4.17;3.77;;;13.30;99.90;;;;;;5021957;28;20213;-89
2021/08/18 09:16:05;;;;;;;6.97;4.30;;;13.30;99.90;;;;;;5026615;28;20211;-89
2021/08/18 09:18:43;;;;;;;6.23;4.20;;;13.30;99.90;;;;;;5042137;28;20664;-90
2021/08/18 09:21:37;;;;;;;4.40;3.83;;;13.30;99.90;;;;;;5040396;28;20286;-89
2021/08/18 09:24:35;;;;;;;6.67;4.53;;;13.30;99.90;;;;;;5040766;28;20205;-89
2021/08/18 09:27:10;;;;;;;5.57;4.50;;;13.30;99.90;;;;;;5007190;28;20635;-89
2021/08/18 09:29:44;;;;;;;4.60;3.90;;;13.20;99.90;;;;;;5040740;28;20204;-89
2021/08/18 09:32:38;;;;;;;5.50;4.17;;;13.20;99.90;;;;;;5041790;28;20337;-92
2021/08/18 09:35:13;;;;;;;6.10;4.10;;;13.20;99.90;;;;;;5038558;28;20254;-89
2021/08/18 09:37:46;;;;;;;5.50;3.80;;;13.10;99.90;;;;;;5040348;28;20219;-89
2021/08/18 09:40:20;;;;;;;4.50;3.80;;;13.10;99.90;;;;;;5040112;28;20303;-90
2021/08/18 09:42:52;;;;;;;4.30;3.67;;;13.20;99.90;;;;;;5039767;28;20233;-89
2021/08/18 09:45:27;;;;;;;5.33;3.70;;;13.20;99.90;;;;;;5039877;28;20299;-89
2021/08/18 09:48:07;;;;;;;5.10;3.90;;;13.10;99.90;;;;;;5022991;28;20213;-89
2021/08/18 09:50:47;;;;;;;7.73;4.27;;;13.10;99.90;;;;;;5022171;28;20201;-90
2021/08/18 09:53:21;;;;;;;4.97;3.50;;;13.10;99.90;;;;;;5040096;28;20213;-89
2021/08/18 09:55:58;;;;;;;5.17;3.80;;;13.20;99.90;;;;;;5039382;28;20233;-90
2021/08/18 09:58:32;;;;;;;4.40;4.00;;;13.20;99.90;;;;;;5039815;28;20223;-89
2021/08/18 10:01:05;;;;;;;4.73;3.83;;;13.20;99.90;;;;;;5039243;28;20284;-89
2021/08/18 10:03:41;;;;;;;4.97;3.87;;;13.20;99.90;;;;;;5040918;28;20208;-89
2021/08/18 10:06:13;;;;;;;5.90;3.90;;;13.10;99.90;;;;;;5031143;28;20233;-89
2021/08/18 10:08:45;;;;;;;5.23;3.97;;;13.10;99.90;;;;;;5020225;28;20209;-89
2021/08/18 10:11:18;;;;;;;6.43;4.10;;;13.10;99.90;;;;;;5019829;28;20212;-90
2021/08/18 10:13:49;;;;;;;5.03;3.97;;;13.10;99.90;;;;;;5002695;28;20259;-90
2021/08/18 10:16:20;;;;;;;5.17;4.40;;;13.00;99.90;;;;;;5021955;28;20268;-90
2021/08/18 10:18:57;;;;;;;5.17;4.10;;;12.90;99.90;;;;;;5019553;28;20597;-89
2021/08/18 10:21:29;;;;;;;4.40;4.00;;;13.00;99.90;;;;;;5018328;28;20296;-89
2021/08/18 10:24:03;;;;;;;5.33;3.93;;;13.00;99.90;;;;;;5018935;28;20208;-89
2021/08/18 10:26:54;;;;;;;6.40;4.20;;;13.00;99.90;;;;;;5018900;28;20229;-89
2021/08/18 10:29:36;;;;;;;4.73;3.67;;;12.90;99.90;;;;;;5018491;28;20217;-89
2021/08/18 10:32:10;;;;;;;6.17;4.33;;;12.90;99.90;;;;;;5018595;28;20275;-89
2021/08/18 10:34:51;;;;;;;5.07;4.27;;;12.90;99.90;;;;;;5017746;28;20289;-89
2021/08/18 10:37:30;;;;;;;6.30;4.20;;;12.90;99.90;;;;;;5019341;28;20233;-89
2021/08/18 10:40:15;;;;;;;6.70;4.40;;;12.80;99.90;;;;;;5018800;28;20597;-89
2021/08/18 10:42:47;;;;;;;5.63;4.50;;;12.70;99.90;;;;;;5019900;28;20233;-89
2021/08/18 10:45:40;;;;;;;4.93;4.43;;;12.70;99.90;;;;;;5023359;28;20292;-90
2021/08/18 10:48:12;;;;;;;6.83;4.10;;;12.60;99.90;;;;;;5035272;28;20232;-90
2021/08/18 10:50:47;;;;;;;5.17;4.67;;;12.60;99.90;;;;;;5038396;28;20694;-89
2021/08/18 10:53:35;;;;;;;5.37;4.40;;;12.60;99.90;;;;;;5038987;28;20232;-89
2021/08/18 10:56:44;;;;;;;6.50;4.70;;;12.60;99.90;;;;;;5038745;28;20293;-89
2021/08/18 10:59:50;;;;;;;5.33;4.37;;;12.60;99.90;;;;;;5038427;28;20216;-89
2021/08/18 11:02:52;;;;;;;5.53;4.33;;;12.70;99.90;;;;;;5037558;28;20212;-90
2021/08/18 11:05:26;;;;;;;4.83;4.03;;;12.80;99.90;;;;;;5028085;28;20225;-90
2021/08/18 11:08:26;;;;;;;5.00;3.90;;;12.70;99.90;;;;;;5018386;28;20301;-89
2021/08/18 11:11:18;;;;;;;5.10;4.40;;;12.70;99.90;;;;;;5017006;28;20205;-90
2021/08/18 11:13:51;;;;;;;5.17;4.43;;;12.70;99.90;;;;;;5019605;28;20670;-89
2021/08/18 11:16:26;;;;;;;5.30;4.07;;;12.70;99.90;;;;;;5019258;28;20206;-89
2021/08/18 11:18:59;;;;;;;5.33;3.70;;;12.70;99.90;;;;;;5003468;28;20212;-89
2021/08/18 11:21:35;;;;;;;5.53;4.23;;;12.60;99.90;;;;;;5024612;28;20213;-89
2021/08/18 11:24:10;;;;;;;7.00;4.43;;;12.70;99.90;;;;;;5037162;28;20240;-89
2021/08/18 11:26:42;;;;;;;7.23;4.87;;;12.70;99.90;;;;;;5037068;28;20233;-91
2021/08/18 11:29:18;;;;;;;5.20;4.00;;;12.70;99.90;;;;;;5006809;28;20214;-90
2021/08/18 11:31:50;;;;;;;6.97;4.43;;;12.70;99.90;;;;;;5019728;28;20259;-90
2021/08/18 11:34:24;;;;;;;5.67;4.73;;;12.60;99.90;;;;;;5018402;28;20234;-90
2021/08/18 11:37:02;;;;;;;4.73;4.10;;;12.60;99.90;;;;;;5018280;28;20746;-90
2021/08/18 11:39:37;;;;;;;4.67;4.03;;;12.70;99.90;;;;;;5018701;28;20233;-90
2021/08/18 11:42:16;;;;;;;5.30;4.10;;;12.70;99.90;;;;;;5017335;28;20205;-89
2021/08/18 11:44:48;;;;;;;5.70;4.67;;;12.60;99.90;;;;;;5018643;28;20202;-90
2021/08/18 11:47:20;;;;;;;4.87;4.40;;;12.50;99.90;;;;;;5000845;28;20254;-90
2021/08/18 11:49:51;;;;;;;6.73;4.77;;;12.40;99.90;;;;;;4999049;28;20198;-91
2021/08/18 11:52:24;;;;;;;6.07;4.73;;;12.50;99.90;;;;;;4998285;28;20309;-90
2021/08/18 11:54:59;;;;;;;6.07;4.40;;;12.50;99.90;;;;;;5001041;28;20214;-90
2021/08/18 11:57:31;;;;;;;6.10;4.47;;;12.60;99.90;;;;;;5001953;28;20222;-90
2021/08/18 12:00:05;;;;;;;4.43;4.03;;;12.50;99.90;;;;;;5002318;28;20302;-89
2021/08/18 12:02:38;;;;;;;5.67;4.37;;;12.50;99.90;;;;;;5005894;28;20666;-90
2021/08/18 12:05:12;;;;;;;6.37;4.97;;;12.50;99.90;;;;;;5017293;28;20257;-89
2021/08/18 12:07:44;;;;;;;5.57;4.57;;;12.40;99.90;;;;;;5017557;28;20265;-89
2021/08/18 12:10:21;;;;;;;7.13;4.70;;;12.40;99.90;;;;;;5017104;28;20217;-93
2021/08/18 12:13:05;;;;;;;5.63;4.10;;;12.50;99.90;;;;;;5014992;28;20229;-90
2021/08/18 12:15:42;;;;;;;5.07;4.37;;;12.50;99.90;;;;;;5013706;28;20224;-90
2021/08/18 12:18:33;;;;;;;6.63;4.83;;;12.40;99.90;;;;;;5044252;28;20235;-89
2021/08/18 12:21:28;;;;;;;5.63;4.10;;;12.40;99.90;;;;;;5038651;28;20551;-90
2021/08/18 12:24:10;;;;;;;5.73;4.77;;;12.40;99.90;;;;;;5020227;28;20296;-89
2021/08/18 12:26:45;;;;;;;5.97;4.53;;;12.40;99.90;;;;;;5039253;28;20209;-90
2021/08/18 12:29:21;;;;;;;5.13;4.53;;;12.30;99.90;;;;;;5007098;28;20280;-90
2021/08/18 12:31:59;;;;;;;5.70;4.53;;;12.30;99.90;;;;;;5020696;28;20308;-90
2021/08/18 12:34:48;;;;;;;7.07;4.17;;;12.30;99.90;;;;;;5038614;28;20213;-89
2021/08/18 12:37:21;;;;;;;7.97;4.67;;;12.30;99.90;;;;;;5037860;28;20243;-91
2021/08/18 12:39:56;;;;;;;6.77;4.53;;;12.30;99.90;;;;;;5037761;28;20285;-90
2021/08/18 12:42:32;;;;;;;6.60;4.30;;;12.40;99.90;;;;;;5051666;28;20205;-88
2021/08/18 12:45:12;;;;;;;6.00;4.70;;;12.30;99.90;;;;;;5049719;28;20204;-89
2021/08/18 12:47:45;;;;;;;9.80;4.50;;;12.30;99.90;;;;;;5031839;28;20229;-91
2021/08/18 12:50:28;;;;;;;6.47;4.83;;;12.30;99.90;;;;;;5025494;28;20222;-92
2021/08/18 12:53:02;;;;;;;5.67;4.13;;;12.30;99.90;;;;;;5017064;28;20223;-90
2021/08/18 12:55:35;;;;;;;5.03;4.40;;;12.30;99.90;;;;;;5012696;28;20233;-90
2021/08/18 12:58:18;;;;;;;5.77;4.00;;;12.30;99.90;;;;;;5016230;28;20217;-91
2021/08/18 13:00:49;;;;;;;6.70;4.73;;;12.20;99.90;;;;;;5016160;28;20295;-90
2021/08/18 13:03:21;;;;;;;4.77;4.07;;;12.20;99.90;;;;;;5016111;28;20217;-91
2021/08/18 13:05:54;;;;;;;5.30;4.53;;;12.20;99.90;;;;;;5016306;28;20205;-91
2021/08/18 13:08:25;;;;;;;7.23;4.70;;;12.20;99.90;;;;;;4997080;28;20244;-90
2021/08/18 13:10:58;;;;;;;5.37;4.40;;;12.20;99.90;;;;;;4996160;28;20214;-90
2021/08/18 13:13:34;;;;;;;8.17;4.80;;;12.20;99.90;;;;;;4996957;28;20276;-88
2021/08/18 13:16:05;;;;;;;6.27;4.63;;;12.10;99.90;;;;;;5018778;28;20274;-91
2021/08/18 13:18:37;;;;;;;5.67;4.10;;;12.20;99.90;;;;;;5037055;28;20616;-90
2021/08/18 13:21:10;;;;;;;4.93;4.40;;;12.20;99.90;;;;;;5037500;28;20268;-90
2021/08/18 13:23:42;;;;;;;5.43;4.33;;;12.20;99.90;;;;;;5038767;28;20213;-90
2021/08/18 13:26:14;;;;;;;6.13;4.37;;;12.20;99.90;;;;;;5038278;28;20299;-90
2021/08/18 13:28:48;;;;;;;8.00;4.53;;;12.20;99.90;;;;;;5037247;28;20316;-90
2021/08/18 13:31:20;;;;;;;6.30;4.47;;;12.20;99.90;;;;;;5035796;28;20217;-89
2021/08/18 13:33:51;;;;;;;5.63;4.43;;;12.30;99.90;;;;;;5038465;28;20219;-90
2021/08/18 13:36:23;;;;;;;5.90;4.50;;;12.30;99.90;;;;;;5022063;28;20209;-90
2021/08/18 13:38:54;;;;;;;5.60;3.93;;;12.30;99.90;;;;;;5023355;28;20221;-90
2021/08/18 13:41:25;;;;;;;4.97;4.20;;;12.30;99.90;;;;;;5055542;28;20198;-90
2021/08/18 13:43:58;;;;;;;7.77;4.60;;;12.40;99.90;;;;;;5049839;28;20229;-90
2021/08/18 13:46:30;;;;;;;6.60;4.43;;;12.40;99.90;;;;;;5028136;28;20209;-89